This is the latest recevied weather packets stored in our database for station/object IZ8QAD-4. If no packets are shown the sender has not sent any weather packets the latest 10 day(s).
| Time | Temp. | Humidity | Pressure | Rain* | Wind** | Luminosity | Snow |
|---|---|---|---|---|---|---|---|
| 1777484781 | 25° C | 27% | 967.2 hPa | - | - | - | - |
| 1777482981 | 25° C | 27% | 967.1 hPa | - | - | - | - |
| 1777481181 | 24.44° C | 24% | 966.9 hPa | - | - | - | - |
| 1777479381 | 25° C | 25% | 966.9 hPa | - | - | - | - |
| 1777477581 | 25° C | 25% | 966.9 hPa | - | - | - | - |
| 1777475780 | 25° C | 25% | 967 hPa | - | - | - | - |
| 1777473980 | 25° C | 26% | 967.1 hPa | - | - | - | - |
| 1777472180 | 24.44° C | 26% | 967.3 hPa | - | - | - | - |
| 1777471233 | 23.33° C | 32% | 968.6 hPa | - | - | - | - |
| 1777470383 | 24.44° C | 27% | 967.6 hPa | - | - | - | - |
| 1777468582 | 24.44° C | 27% | 967.6 hPa | - | - | - | - |
| 1777466782 | 23.89° C | 26% | 967.7 hPa | - | - | - | - |
| 1777464982 | 24.44° C | 27% | 967.7 hPa | - | - | - | - |
| 1777463182 | 24.44° C | 29% | 967.6 hPa | - | - | - | - |
| 1777461382 | 23.89° C | 26% | 967.8 hPa | - | - | - | - |
| 1777459582 | 23.89° C | 29% | 968 hPa | - | - | - | - |
| 1777457782 | 23.33° C | 28% | 968.2 hPa | - | - | - | - |
| 1777455981 | 23.33° C | 29% | 968.5 hPa | - | - | - | - |
| 1777454181 | 22.78° C | 30% | 968.4 hPa | - | - | - | - |
| 1777452381 | 22.78° C | 32% | 968.5 hPa | - | - | - | - |
| 1777450580 | 23.33° C | 32% | 968.6 hPa | - | - | - | - |
| 1777448782 | 23.33° C | 32% | 968.6 hPa | - | - | - | - |
| 1777446982 | 23.33° C | 32% | 968.7 hPa | - | - | - | - |
| 1777445181 | 23.89° C | 33% | 968.6 hPa | - | - | - | - |
| 1777443381 | 23.89° C | 34% | 968.4 hPa | - | - | - | - |
* Rain since midnight (hover to see other rain measurements)
** Current wind speed in m/s (hover to see current wind gust speed)